Time;durP1;ratioP1;P1;durP2;ratioP2;P2;SDS_P1;SDS_P2;PMS_P1;PMS_P2;Temp;Humidity;BMP_temperature;BMP_pressure;BME280_temperature;BME280_humidity;BME280_pressure;Samples;Min_cycle;Max_cycle;Signal;HPM_P1;HPM_P2
2023/08/17 00:00:10;;;;;;;4.80;3.17;;;19.50;99.90;;;;;;5034490;28;20024;-51
2023/08/17 00:02:35;;;;;;;3.80;2.60;;;19.50;99.90;;;;;;5034546;28;20562;-55
2023/08/17 00:05:01;;;;;;;2.65;1.88;;;19.50;99.90;;;;;;5034434;28;20069;-55
2023/08/17 00:07:26;;;;;;;6.13;3.35;;;19.40;99.90;;;;;;5016587;28;20025;-53
2023/08/17 00:09:52;;;;;;;3.13;2.83;;;19.40;99.90;;;;;;5034141;28;20033;-53
2023/08/17 00:12:18;;;;;;;3.45;2.35;;;19.30;99.90;;;;;;5016502;28;20083;-57
2023/08/17 00:14:43;;;;;;;3.63;2.35;;;19.30;99.90;;;;;;5034205;28;20440;-56
2023/08/17 00:17:09;;;;;;;3.25;2.25;;;19.30;99.90;;;;;;5016420;28;20067;-57
2023/08/17 00:19:34;;;;;;;2.67;2.47;;;19.40;99.90;;;;;;5033800;28;20032;-54
2023/08/17 00:22:00;;;;;;;4.60;2.30;;;19.40;99.90;;;;;;5034207;28;20017;-57
2023/08/17 00:24:25;;;;;;;8.68;2.40;;;19.30;99.90;;;;;;5034092;28;20393;-54
2023/08/17 00:26:51;;;;;;;2.53;2.22;;;19.30;99.90;;;;;;5034067;28;20017;-56
2023/08/17 00:29:17;;;;;;;3.97;2.42;;;19.30;99.90;;;;;;5034062;28;20446;-56
2023/08/17 00:31:42;;;;;;;4.05;2.60;;;19.30;99.90;;;;;;5033761;28;20025;-55
2023/08/17 00:34:08;;;;;;;4.75;2.38;;;19.30;99.90;;;;;;5033775;28;20033;-52
2023/08/17 00:36:33;;;;;;;3.13;2.05;;;19.20;99.90;;;;;;5033991;28;20481;-51
2023/08/17 00:38:59;;;;;;;5.18;2.30;;;19.10;99.90;;;;;;5033446;28;20061;-53
2023/08/17 00:41:24;;;;;;;3.55;2.30;;;19.10;99.90;;;;;;5033815;28;20031;-55
2023/08/17 00:43:50;;;;;;;38.72;28.15;;;19.00;99.90;;;;;;5033667;28;20028;-57
2023/08/17 00:46:16;;;;;;;28.92;21.17;;;18.90;99.90;;;;;;5033699;28;20025;-57
2023/08/17 00:48:42;;;;;;;5.35;3.00;;;18.90;99.90;;;;;;5033473;28;20026;-57
2023/08/17 00:51:08;;;;;;;4.22;2.40;;;18.90;99.90;;;;;;5032664;28;20385;-54
2023/08/17 00:53:34;;;;;;;5.07;2.55;;;18.90;99.90;;;;;;5033922;28;20104;-58
2023/08/17 00:56:02;;;;;;;5.53;3.40;;;18.90;99.90;;;;;;5033444;28;20116;-53
2023/08/17 00:58:28;;;;;;;7.18;3.75;;;18.90;99.90;;;;;;5033432;28;20033;-56
2023/08/17 01:00:54;;;;;;;5.35;3.70;;;18.90;99.90;;;;;;5065227;22;20052;-55
2023/08/17 01:03:21;;;;;;;5.10;4.03;;;18.90;99.90;;;;;;5052194;28;20025;-57
2023/08/17 01:05:47;;;;;;;4.47;4.07;;;18.90;99.90;;;;;;5053214;28;20028;-53
2023/08/17 01:08:13;;;;;;;11.85;4.43;;;18.80;99.90;;;;;;5053035;28;20029;-56
2023/08/17 01:11:01;;;;;;;6.35;4.40;;;18.80;99.90;;;;;;5051676;28;20078;-58
2023/08/17 01:13:38;;;;;;;11.60;5.05;;;18.80;99.90;;;;;;5052920;28;20032;-58
2023/08/17 01:16:09;;;;;;;8.07;4.47;;;18.80;99.90;;;;;;5053078;28;20100;-55
2023/08/17 01:18:37;;;;;;;7.53;4.75;;;18.70;99.90;;;;;;5051526;28;20056;-57
2023/08/17 01:21:05;;;;;;;6.30;4.53;;;18.70;99.90;;;;;;5034855;28;20447;-58
2023/08/17 01:23:31;;;;;;;6.28;5.18;;;18.80;99.90;;;;;;5051701;28;20036;-57
2023/08/17 01:25:57;;;;;;;5.68;5.07;;;18.70;99.90;;;;;;5052887;28;20478;-57
2023/08/17 01:28:23;;;;;;;4.78;4.40;;;18.70;99.90;;;;;;5052689;28;20109;-58
2023/08/17 01:31:05;;;;;;;6.50;5.18;;;18.60;99.90;;;;;;5051229;28;20154;-58
2023/08/17 01:34:05;;;;;;;6.25;5.05;;;18.60;99.90;;;;;;5051626;28;20087;-54
2023/08/17 01:36:40;;;;;;;7.20;5.60;;;18.60;99.90;;;;;;5035170;28;20040;-57
2023/08/17 01:39:08;;;;;;;7.60;5.22;;;18.60;99.90;;;;;;5052424;28;20075;-54
2023/08/17 01:41:36;;;;;;;9.43;5.90;;;18.60;99.90;;;;;;5052623;28;20112;-51
2023/08/17 01:44:02;;;;;;;9.80;5.80;;;18.60;99.90;;;;;;5052635;28;20104;-58
2023/08/17 01:46:32;;;;;;;6.95;5.88;;;18.50;99.90;;;;;;5052737;28;20384;-57
2023/08/17 01:48:58;;;;;;;8.60;5.75;;;18.60;99.90;;;;;;5052291;28;20488;-58
2023/08/17 01:51:25;;;;;;;8.05;5.20;;;18.50;99.90;;;;;;5052480;28;20040;-57
2023/08/17 01:53:50;;;;;;;8.20;5.82;;;18.50;99.90;;;;;;5051484;28;20434;-55
2023/08/17 01:56:16;;;;;;;10.98;7.35;;;18.50;99.90;;;;;;5052385;28;20067;-55
2023/08/17 01:58:42;;;;;;;8.25;7.15;;;18.50;99.90;;;;;;5052550;28;20112;-54
2023/08/17 02:01:08;;;;;;;12.77;7.95;;;18.40;99.90;;;;;;5050642;28;20036;-58
2023/08/17 02:03:34;;;;;;;14.07;8.32;;;18.40;99.90;;;;;;5034563;28;20017;-57
2023/08/17 02:05:59;;;;;;;12.45;8.75;;;18.50;99.90;;;;;;5050909;28;20107;-54
2023/08/17 02:08:25;;;;;;;12.60;7.90;;;18.40;99.90;;;;;;5052329;28;20031;-56
2023/08/17 02:10:51;;;;;;;12.27;8.15;;;18.40;99.90;;;;;;5051145;28;20025;-57
2023/08/17 02:13:17;;;;;;;12.48;8.05;;;18.50;99.90;;;;;;5051379;28;20488;-59
2023/08/17 02:15:43;;;;;;;11.13;8.00;;;18.40;99.90;;;;;;5052204;28;20025;-58
2023/08/17 02:18:09;;;;;;;13.20;9.73;;;18.50;99.90;;;;;;5051856;28;20029;-56
2023/08/17 02:20:34;;;;;;;11.93;9.68;;;18.40;99.90;;;;;;5050456;28;20024;-55
2023/08/17 02:23:01;;;;;;;10.85;8.80;;;18.40;99.90;;;;;;5052005;28;20104;-56
2023/08/17 02:25:27;;;;;;;10.20;8.43;;;18.40;99.90;;;;;;5051891;28;20016;-56
2023/08/17 02:27:52;;;;;;;11.18;8.13;;;18.40;99.90;;;;;;5051916;28;20021;-55
2023/08/17 02:30:18;;;;;;;8.90;7.53;;;18.40;99.90;;;;;;5050113;28;20035;-59
2023/08/17 02:32:43;;;;;;;11.90;8.48;;;18.40;99.90;;;;;;5050615;28;20515;-59
2023/08/17 02:35:10;;;;;;;11.15;8.73;;;18.40;99.90;;;;;;5050301;28;20028;-59
2023/08/17 02:37:35;;;;;;;13.25;9.40;;;18.40;99.90;;;;;;5051711;28;20052;-60
2023/08/17 02:40:02;;;;;;;14.00;9.73;;;18.30;99.90;;;;;;5051315;28;20488;-60
2023/08/17 02:42:28;;;;;;;15.32;10.63;;;18.30;99.90;;;;;;5051706;28;20021;-60
2023/08/17 02:44:53;;;;;;;14.77;10.55;;;18.30;99.90;;;;;;5033358;28;20490;-60
2023/08/17 02:47:19;;;;;;;14.57;10.55;;;18.30;99.90;;;;;;5051597;28;20029;-56
2023/08/17 02:49:44;;;;;;;16.13;11.38;;;18.20;99.90;;;;;;5051216;28;20454;-58
2023/08/17 02:52:10;;;;;;;15.52;11.10;;;18.30;99.90;;;;;;5051444;28;20036;-60
2023/08/17 02:54:36;;;;;;;18.13;11.25;;;18.30;99.90;;;;;;5051494;28;20021;-55
2023/08/17 02:57:01;;;;;;;18.35;11.73;;;18.20;99.90;;;;;;5051305;28;20032;-54
2023/08/17 02:59:27;;;;;;;13.95;9.15;;;18.70;99.90;;;;;;5050961;28;20473;-58
2023/08/17 03:01:53;;;;;;;12.73;9.57;;;18.20;99.90;;;;;;5051136;28;20086;-55
2023/08/17 03:04:19;;;;;;;11.18;8.82;;;18.20;99.90;;;;;;5051246;28;20029;-58
2023/08/17 03:06:44;;;;;;;12.48;9.27;;;18.20;99.90;;;;;;5051288;28;20028;-56
2023/08/17 03:09:10;;;;;;;13.98;9.25;;;18.20;99.90;;;;;;5049733;28;20162;-58
2023/08/17 03:11:36;;;;;;;12.30;9.45;;;18.20;99.90;;;;;;5050980;28;20396;-56
2023/08/17 03:14:02;;;;;;;12.93;9.30;;;18.20;99.90;;;;;;5049985;28;20028;-57
2023/08/17 03:16:29;;;;;;;11.35;9.18;;;18.20;99.90;;;;;;5055051;28;20025;-58
2023/08/17 03:18:55;;;;;;;14.95;9.07;;;18.20;99.90;;;;;;5053607;28;20025;-56
2023/08/17 03:21:21;;;;;;;12.50;8.40;;;18.20;99.90;;;;;;5037186;28;20024;-60
2023/08/17 03:23:47;;;;;;;10.27;8.10;;;18.20;99.90;;;;;;5055175;28;20021;-58
2023/08/17 03:26:12;;;;;;;10.73;8.90;;;18.10;99.90;;;;;;5054992;28;20040;-58
2023/08/17 03:28:38;;;;;;;12.15;8.75;;;18.20;99.90;;;;;;5054951;28;20099;-58
2023/08/17 03:31:03;;;;;;;9.13;8.15;;;18.20;99.90;;;;;;5054661;28;20029;-59
2023/08/17 03:33:29;;;;;;;10.32;8.40;;;18.20;99.90;;;;;;5053725;28;20083;-59
2023/08/17 03:35:55;;;;;;;10.95;7.93;;;18.20;99.90;;;;;;5054916;28;20037;-60
2023/08/17 03:38:20;;;;;;;11.75;8.82;;;18.20;99.90;;;;;;5054886;28;20028;-58
2023/08/17 03:40:47;;;;;;;10.52;8.02;;;18.20;99.90;;;;;;5053595;28;20017;-57
2023/08/17 03:43:13;;;;;;;9.32;8.40;;;18.20;99.90;;;;;;5055211;28;20029;-57
2023/08/17 03:45:40;;;;;;;13.15;9.18;;;18.20;99.90;;;;;;5054933;28;20561;-58
2023/08/17 03:48:06;;;;;;;10.65;8.35;;;18.20;99.90;;;;;;5054690;28;20082;-60
2023/08/17 03:50:32;;;;;;;12.07;9.48;;;18.20;99.90;;;;;;5054349;28;20048;-60
2023/08/17 03:52:57;;;;;;;15.13;9.35;;;18.10;99.90;;;;;;5054780;28;20076;-58
2023/08/17 03:55:23;;;;;;;11.57;8.60;;;18.10;99.90;;;;;;5056112;28;20455;-60
2023/08/17 03:57:48;;;;;;;17.95;9.50;;;18.10;99.90;;;;;;5054786;28;20407;-58
2023/08/17 04:00:14;;;;;;;12.45;8.30;;;18.20;99.90;;;;;;5053963;28;20104;-59
2023/08/17 04:02:39;;;;;;;17.42;9.93;;;18.30;99.90;;;;;;5054578;28;20025;-57
2023/08/17 04:05:05;;;;;;;14.95;9.55;;;18.30;99.90;;;;;;5054369;28;20029;-58
2023/08/17 04:07:31;;;;;;;16.20;8.98;;;18.30;99.90;;;;;;5054837;28;20443;-54
2023/08/17 04:09:56;;;;;;;12.90;9.30;;;18.30;99.90;;;;;;5054232;28;20027;-56
2023/08/17 04:12:23;;;;;;;10.55;8.13;;;18.30;99.90;;;;;;5054300;28;20389;-56
2023/08/17 04:14:48;;;;;;;19.05;8.70;;;18.20;99.90;;;;;;5054143;28;20044;-59
2023/08/17 04:17:14;;;;;;;11.57;8.77;;;18.30;99.90;;;;;;5054123;28;20029;-57
2023/08/17 04:19:39;;;;;;;11.88;9.38;;;18.30;99.90;;;;;;5053747;28;20035;-55
2023/08/17 04:22:05;;;;;;;13.15;10.25;;;18.30;99.90;;;;;;5054281;28;20391;-56
2023/08/17 04:24:30;;;;;;;14.95;10.38;;;18.40;99.90;;;;;;5053983;28;20040;-58
2023/08/17 04:26:56;;;;;;;16.35;9.38;;;18.40;99.90;;;;;;5052679;28;20091;-57
2023/08/17 04:29:21;;;;;;;12.57;9.55;;;18.30;99.90;;;;;;5053610;28;20476;-58
2023/08/17 04:31:47;;;;;;;12.93;8.15;;;18.30;99.90;;;;;;5054127;28;20503;-60
2023/08/17 04:34:13;;;;;;;11.15;8.25;;;18.20;99.90;;;;;;5053858;28;20033;-57
2023/08/17 04:36:38;;;;;;;11.73;8.55;;;18.20;99.90;;;;;;5053819;28;20082;-57
2023/08/17 04:39:04;;;;;;;11.55;8.90;;;18.20;99.90;;;;;;5052016;28;20510;-59
2023/08/17 04:41:30;;;;;;;12.73;7.90;;;18.10;99.90;;;;;;5053608;28;20491;-57
2023/08/17 04:43:56;;;;;;;11.77;8.38;;;18.10;99.90;;;;;;5052311;28;20120;-58
2023/08/17 04:46:21;;;;;;;9.77;8.32;;;18.00;99.90;;;;;;5052217;28;20465;-58
2023/08/17 04:48:47;;;;;;;15.18;8.23;;;18.00;99.90;;;;;;5053468;28;20035;-58
2023/08/17 04:51:13;;;;;;;10.25;7.55;;;18.10;99.90;;;;;;5051902;28;20017;-58
2023/08/17 04:53:38;;;;;;;11.55;8.35;;;18.10;99.90;;;;;;5053341;28;20119;-56
2023/08/17 04:56:04;;;;;;;10.82;8.48;;;18.10;99.90;;;;;;5053482;28;20048;-57
2023/08/17 04:58:29;;;;;;;14.63;9.05;;;18.10;99.90;;;;;;5053154;28;20709;-57
2023/08/17 05:00:55;;;;;;;11.48;7.45;;;18.10;99.90;;;;;;5052952;28;20035;-58
2023/08/17 05:03:20;;;;;;;10.38;8.73;;;18.20;99.90;;;;;;5053279;28;20472;-57
2023/08/17 05:05:46;;;;;;;12.23;9.10;;;18.20;99.90;;;;;;5053217;28;20025;-56
2023/08/17 05:08:12;;;;;;;11.73;8.68;;;18.20;99.90;;;;;;5053051;28;20029;-58
2023/08/17 05:10:37;;;;;;;9.15;7.78;;;18.20;99.90;;;;;;5053141;28;20056;-58
2023/08/17 05:13:03;;;;;;;12.00;8.25;;;18.30;99.90;;;;;;5052722;28;20511;-56
2023/08/17 05:15:28;;;;;;;11.48;8.55;;;18.30;99.90;;;;;;5052902;28;20472;-57
2023/08/17 05:17:55;;;;;;;11.02;8.57;;;18.40;99.90;;;;;;5051622;28;20098;-57
2023/08/17 05:20:20;;;;;;;11.93;9.13;;;18.50;99.90;;;;;;5052774;28;20104;-56
2023/08/17 05:22:47;;;;;;;10.18;7.95;;;18.50;99.90;;;;;;5052954;28;20124;-57
2023/08/17 05:25:12;;;;;;;12.35;8.77;;;18.50;99.90;;;;;;5053073;28;20033;-58
2023/08/17 05:27:38;;;;;;;12.55;9.43;;;18.70;99.90;;;;;;5052932;28;20039;-58
2023/08/17 05:30:04;;;;;;;11.93;9.18;;;18.70;99.90;;;;;;5052612;28;20032;-60
2023/08/17 05:32:30;;;;;;;17.63;10.30;;;18.90;99.90;;;;;;5052873;28;20476;-55
2023/08/17 05:34:56;;;;;;;10.85;9.30;;;19.00;99.90;;;;;;5034899;28;20108;-57
2023/08/17 05:37:21;;;;;;;24.48;10.60;;;19.20;99.90;;;;;;5052259;28;20491;-58
2023/08/17 05:39:47;;;;;;;15.10;9.82;;;19.60;99.90;;;;;;5052488;28;20029;-57
2023/08/17 05:42:12;;;;;;;11.10;9.57;;;20.00;99.90;;;;;;5052706;28;20021;-59
2023/08/17 05:44:38;;;;;;;15.50;9.38;;;20.40;99.90;;;;;;5052099;28;20108;-56
2023/08/17 05:47:03;;;;;;;11.43;8.45;;;20.60;99.90;;;;;;5051215;28;20098;-55
2023/08/17 05:49:29;;;;;;;12.45;7.10;;;20.80;99.90;;;;;;5052174;28;20033;-58
2023/08/17 05:51:54;;;;;;;15.13;8.82;;;20.90;99.90;;;;;;5051064;28;20028;-59
2023/08/17 05:54:20;;;;;;;12.25;6.82;;;20.90;99.90;;;;;;5052522;28;20025;-60
2023/08/17 05:56:47;;;;;;;7.95;7.15;;;20.90;99.90;;;;;;5052329;28;20079;-58
2023/08/17 05:59:13;;;;;;;7.93;6.82;;;20.80;99.90;;;;;;5051881;28;20104;-58
2023/08/17 06:01:40;;;;;;;9.65;7.18;;;20.80;99.90;;;;;;5052139;28;20029;-59
2023/08/17 06:04:05;;;;;;;9.98;7.60;;;20.80;99.90;;;;;;5052500;28;20051;-58
2023/08/17 06:06:31;;;;;;;10.48;8.48;;;20.80;99.90;;;;;;5052482;28;20060;-59
2023/08/17 06:08:56;;;;;;;11.73;9.75;;;20.80;99.90;;;;;;5050501;28;20025;-55
2023/08/17 06:11:23;;;;;;;10.45;7.93;;;20.90;99.90;;;;;;5050475;28;20268;-57
2023/08/17 06:13:49;;;;;;;11.50;9.00;;;20.90;99.90;;;;;;5050322;28;20033;-58
2023/08/17 06:16:15;;;;;;;9.80;7.25;;;20.90;99.90;;;;;;5052045;28;20033;-58
2023/08/17 06:18:41;;;;;;;9.30;8.15;;;20.80;99.90;;;;;;5051543;28;20539;-54
2023/08/17 06:21:07;;;;;;;10.52;9.43;;;20.70;99.90;;;;;;5050370;28;20063;-58
2023/08/17 06:23:32;;;;;;;11.38;9.75;;;20.60;99.90;;;;;;5051822;28;20099;-58
2023/08/17 06:25:58;;;;;;;14.63;8.95;;;20.50;99.90;;;;;;5050615;28;20029;-57
2023/08/17 06:28:25;;;;;;;10.52;7.68;;;20.40;99.90;;;;;;5051808;28;20451;-59
2023/08/17 06:30:54;;;;;;;10.63;8.43;;;20.40;99.90;;;;;;5051590;28;20025;-56
2023/08/17 06:33:21;;;;;;;10.68;8.23;;;20.30;99.90;;;;;;5051679;28;20033;-59
2023/08/17 06:35:47;;;;;;;8.43;7.55;;;20.30;99.90;;;;;;5051786;28;20033;-57
2023/08/17 06:38:12;;;;;;;10.18;8.38;;;20.30;99.90;;;;;;5033585;28;20083;-58
2023/08/17 06:40:38;;;;;;;12.60;8.88;;;20.30;99.90;;;;;;5051290;28;20021;-59
2023/08/17 06:43:04;;;;;;;9.90;7.70;;;20.20;99.90;;;;;;5051784;28;20021;-59
2023/08/17 06:45:31;;;;;;;10.18;8.70;;;20.20;99.90;;;;;;5033545;28;20017;-59
2023/08/17 06:47:57;;;;;;;13.82;8.57;;;20.10;99.90;;;;;;5051812;28;20075;-57
2023/08/17 06:50:22;;;;;;;15.77;8.43;;;20.00;99.90;;;;;;5050473;28;20500;-58
2023/08/17 06:52:48;;;;;;;10.45;8.13;;;20.00;99.90;;;;;;5050269;28;20123;-56
2023/08/17 06:55:14;;;;;;;8.43;7.60;;;20.10;99.90;;;;;;5051160;28;20029;-57
2023/08/17 06:57:40;;;;;;;12.13;6.85;;;20.10;99.90;;;;;;5051372;28;20495;-57
2023/08/17 07:00:06;;;;;;;7.93;7.13;;;20.10;99.90;;;;;;5050967;28;20033;-57
2023/08/17 07:02:32;;;;;;;9.88;7.13;;;20.30;99.90;;;;;;5057371;22;20048;-53
2023/08/17 07:04:58;;;;;;;14.90;7.03;;;20.30;99.90;;;;;;5026954;28;20109;-55
2023/08/17 07:07:23;;;;;;;14.63;8.90;;;20.30;99.90;;;;;;5021910;28;20036;-56
2023/08/17 07:09:49;;;;;;;8.50;7.63;;;20.20;99.90;;;;;;5031423;28;20463;-54
2023/08/17 07:12:14;;;;;;;10.25;7.70;;;20.20;99.90;;;;;;5031061;28;20112;-50
2023/08/17 07:14:40;;;;;;;14.25;8.25;;;20.20;99.90;;;;;;5031646;28;20055;-54
2023/08/17 07:17:05;;;;;;;8.73;7.40;;;20.10;99.90;;;;;;5031011;28;20542;-56
2023/08/17 07:19:31;;;;;;;8.23;6.90;;;20.20;99.90;;;;;;5030681;28;20042;-55
2023/08/17 07:21:56;;;;;;;10.18;7.38;;;20.30;99.90;;;;;;5012474;28;20026;-56
2023/08/17 07:24:22;;;;;;;9.35;7.85;;;20.30;99.90;;;;;;5031251;28;20030;-57
2023/08/17 07:26:47;;;;;;;8.68;7.30;;;20.30;99.90;;;;;;5031332;28;20026;-56
2023/08/17 07:29:13;;;;;;;12.68;8.32;;;20.30;99.90;;;;;;5031034;28;20030;-52
2023/08/17 07:31:39;;;;;;;15.10;8.25;;;20.30;99.90;;;;;;5031188;28;20397;-57
2023/08/17 07:34:06;;;;;;;10.05;7.38;;;20.30;99.90;;;;;;5030889;28;20507;-51
2023/08/17 07:36:32;;;;;;;10.43;7.97;;;20.30;99.90;;;;;;5030972;28;20022;-54
2023/08/17 07:38:58;;;;;;;8.82;6.22;;;20.30;99.90;;;;;;5012430;28;20026;-55
2023/08/17 07:41:23;;;;;;;9.25;6.72;;;20.30;99.90;;;;;;5030822;28;20021;-54
2023/08/17 07:43:49;;;;;;;6.28;5.68;;;20.30;99.90;;;;;;5031110;28;20041;-57
2023/08/17 07:46:15;;;;;;;6.63;5.97;;;20.40;99.90;;;;;;5031100;28;20469;-55
2023/08/17 07:48:40;;;;;;;7.85;5.25;;;20.30;99.90;;;;;;5030715;28;20033;-53
2023/08/17 07:51:06;;;;;;;7.53;5.13;;;20.30;99.90;;;;;;5030119;28;20040;-51
2023/08/17 07:53:32;;;;;;;6.93;5.25;;;20.20;99.90;;;;;;5012584;28;20029;-46
2023/08/17 07:55:57;;;;;;;9.60;6.72;;;20.20;99.90;;;;;;5030740;28;20028;-48
2023/08/17 07:58:23;;;;;;;7.20;6.00;;;20.20;99.90;;;;;;5028647;28;20088;-48
2023/08/17 08:00:49;;;;;;;9.98;6.25;;;20.00;99.90;;;;;;5011469;28;20025;-51
2023/08/17 08:03:15;;;;;;;8.10;7.20;;;20.00;99.90;;;;;;5014484;28;20030;-48
2023/08/17 08:05:40;;;;;;;5.70;5.20;;;20.10;99.90;;;;;;5016092;28;20029;-51
2023/08/17 08:08:06;;;;;;;7.05;6.13;;;20.20;99.90;;;;;;5033191;28;20029;-47
2023/08/17 08:10:31;;;;;;;7.68;6.97;;;20.20;99.90;;;;;;5033307;28;20021;-51
2023/08/17 08:12:57;;;;;;;8.50;6.75;;;20.40;99.90;;;;;;5033439;28;20080;-50
2023/08/17 08:15:23;;;;;;;8.18;6.63;;;20.40;99.90;;;;;;5033987;28;20317;-48
2023/08/17 08:17:48;;;;;;;10.43;6.53;;;20.50;99.90;;;;;;5034031;28;20500;-48
2023/08/17 08:20:14;;;;;;;8.63;7.43;;;20.40;99.90;;;;;;5033538;28;20372;-48
2023/08/17 08:22:39;;;;;;;8.20;6.85;;;20.50;99.90;;;;;;5032905;28;20056;-51
2023/08/17 08:25:05;;;;;;;8.73;7.55;;;20.50;99.90;;;;;;5015918;28;20040;-47
2023/08/17 08:27:31;;;;;;;7.93;6.88;;;20.50;99.90;;;;;;5033694;28;20040;-48
2023/08/17 08:29:57;;;;;;;8.55;7.30;;;20.60;99.90;;;;;;5033588;28;20029;-49
2023/08/17 08:32:22;;;;;;;8.25;6.82;;;20.60;99.90;;;;;;5033737;28;20551;-48
2023/08/17 08:34:48;;;;;;;9.32;6.72;;;20.60;99.90;;;;;;5033363;28;20030;-48
2023/08/17 08:37:13;;;;;;;6.90;6.30;;;20.50;99.90;;;;;;5032313;28;20037;-50
2023/08/17 08:39:50;;;;;;;9.15;6.25;;;20.40;99.90;;;;;;5033204;28;20029;-49
2023/08/17 08:42:16;;;;;;;7.10;6.40;;;20.20;99.90;;;;;;5032996;28;20037;-47
2023/08/17 08:44:42;;;;;;;6.32;5.72;;;20.40;99.90;;;;;;5033091;28;20036;-45
2023/08/17 08:47:08;;;;;;;7.05;5.45;;;20.40;99.90;;;;;;5033149;28;20104;-48
2023/08/17 08:49:39;;;;;;;5.30;4.90;;;20.40;99.90;;;;;;5014788;28;20068;-48
2023/08/17 08:52:07;;;;;;;6.70;4.90;;;20.40;99.90;;;;;;5015208;28;20034;-50
2023/08/17 08:54:36;;;;;;;5.53;4.75;;;20.50;99.90;;;;;;5033272;28;20022;-53
2023/08/17 08:57:08;;;;;;;8.48;5.78;;;20.60;99.90;;;;;;5033557;28;20053;-47
2023/08/17 08:59:35;;;;;;;8.10;6.95;;;20.80;99.90;;;;;;5032224;28;20022;-46
2023/08/17 09:02:01;;;;;;;6.97;6.28;;;21.00;99.90;;;;;;5032606;28;20025;-48
2023/08/17 09:04:28;;;;;;;11.77;6.70;;;20.90;99.90;;;;;;5033300;28;20068;-53
2023/08/17 09:06:55;;;;;;;8.10;6.20;;;20.90;99.90;;;;;;5033337;28;20021;-47
2023/08/17 09:09:21;;;;;;;5.72;4.90;;;20.80;99.90;;;;;;5032145;28;20021;-48
2023/08/17 09:11:46;;;;;;;7.90;5.45;;;20.80;99.90;;;;;;5032963;28;20079;-47
2023/08/17 09:14:12;;;;;;;5.88;5.30;;;20.70;99.90;;;;;;5032748;28;20075;-47
2023/08/17 09:16:38;;;;;;;6.45;5.85;;;20.80;99.90;;;;;;5033149;28;20036;-49
2023/08/17 09:19:04;;;;;;;9.82;6.38;;;21.00;99.90;;;;;;5032405;28;20079;-59
2023/08/17 09:21:32;;;;;;;6.68;5.68;;;21.10;99.90;;;;;;5032962;28;20332;-54
2023/08/17 09:23:58;;;;;;;7.03;6.35;;;21.20;99.90;;;;;;5033055;28;20448;-51
2023/08/17 09:26:24;;;;;;;11.98;8.05;;;21.20;99.90;;;;;;5032773;28;20057;-51
2023/08/17 09:28:54;;;;;;;8.07;7.38;;;21.20;99.90;;;;;;5033016;28;20044;-55
2023/08/17 09:31:24;;;;;;;9.18;7.38;;;21.30;99.90;;;;;;5033630;28;20071;-52
2023/08/17 09:33:51;;;;;;;11.18;6.70;;;21.40;99.90;;;;;;5032489;28;20455;-50
2023/08/17 09:36:21;;;;;;;8.35;6.93;;;21.40;99.90;;;;;;5032478;28;20025;-56
2023/08/17 09:38:49;;;;;;;6.90;6.22;;;21.40;99.90;;;;;;5032673;28;20480;-53
2023/08/17 09:41:14;;;;;;;9.43;6.63;;;21.40;99.90;;;;;;5032265;28;20101;-53
2023/08/17 09:43:41;;;;;;;9.55;6.55;;;21.50;99.90;;;;;;5032470;28;20540;-56
2023/08/17 09:46:07;;;;;;;6.50;5.80;;;21.60;99.90;;;;;;5032051;28;20092;-58
2023/08/17 09:48:33;;;;;;;12.25;6.50;;;21.70;99.90;;;;;;5031957;28;20025;-53
2023/08/17 09:51:01;;;;;;;7.70;6.03;;;21.80;99.90;;;;;;5031060;28;20504;-53
2023/08/17 09:53:26;;;;;;;7.18;5.65;;;21.90;99.90;;;;;;5032035;28;20485;-56
2023/08/17 09:55:55;;;;;;;7.90;4.40;;;21.90;99.90;;;;;;5032076;28;20044;-57
2023/08/17 09:58:20;;;;;;;6.28;5.40;;;22.00;99.90;;;;;;5032002;28;20147;-56
2023/08/17 10:00:49;;;;;;;6.28;4.65;;;22.10;99.90;;;;;;5030965;28;20555;-56
2023/08/17 10:03:15;;;;;;;8.77;4.75;;;22.30;99.90;;;;;;5031368;28;20439;-51
2023/08/17 10:05:43;;;;;;;6.25;5.00;;;22.30;99.90;;;;;;5013685;28;20052;-55
2023/08/17 10:08:11;;;;;;;4.03;3.72;;;22.20;99.90;;;;;;5030529;28;20032;-53
2023/08/17 10:10:42;;;;;;;4.40;3.92;;;22.20;99.90;;;;;;5031313;28;20038;-55
2023/08/17 10:13:26;;;;;;;6.40;5.18;;;22.10;99.90;;;;;;5031078;28;20025;-59
2023/08/17 10:16:01;;;;;;;7.53;4.30;;;22.10;99.90;;;;;;5022025;28;20032;-54
2023/08/17 10:18:53;;;;;;;4.15;3.75;;;22.20;99.90;;;;;;5030892;28;20099;-50
2023/08/17 10:21:27;;;;;;;4.05;3.65;;;22.20;99.90;;;;;;5031404;28;20021;-52
2023/08/17 10:23:53;;;;;;;5.13;3.65;;;22.20;99.90;;;;;;5027501;28;20057;-56
2023/08/17 10:26:19;;;;;;;3.55;3.25;;;22.30;99.90;;;;;;4993933;28;20018;-51
2023/08/17 10:28:46;;;;;;;5.43;3.20;;;22.50;99.90;;;;;;4994056;28;20036;-48
2023/08/17 10:31:12;;;;;;;5.45;2.80;;;22.70;99.90;;;;;;5012016;28;20622;-53
2023/08/17 10:33:41;;;;;;;5.72;2.40;;;22.90;99.90;;;;;;5009507;28;20492;-58
2023/08/17 10:36:07;;;;;;;3.55;2.60;;;23.00;99.90;;;;;;5031303;28;20064;-56
2023/08/17 10:38:33;;;;;;;3.63;3.15;;;23.10;99.90;;;;;;5031385;28;20029;-57
2023/08/17 10:41:27;;;;;;;4.80;3.20;;;23.30;99.90;;;;;;5031281;28;20026;-60
2023/08/17 10:43:54;;;;;;;3.28;2.97;;;;;;;;;;5011066;28;20093;-54
2023/08/17 10:46:20;;;;;;;3.45;3.15;;;23.60;99.90;;;;;;5031502;28;20140;-54
2023/08/17 10:48:45;;;;;;;3.78;2.80;;;23.70;99.90;;;;;;5031136;28;20492;-55
2023/08/17 10:51:16;;;;;;;2.80;2.67;;;23.80;99.90;;;;;;5031233;28;20030;-59
2023/08/17 10:53:43;;;;;;;6.35;3.40;;;24.00;99.90;;;;;;5031738;28;20079;-55
2023/08/17 10:56:12;;;;;;;4.63;3.50;;;24.20;99.90;;;;;;5031696;28;20436;-57
2023/08/17 10:58:38;;;;;;;3.40;3.08;;;24.20;99.90;;;;;;5031648;28;20033;-54
2023/08/17 11:01:04;;;;;;;4.97;2.20;;;24.30;99.90;;;;;;5031216;28;20026;-57
2023/08/17 11:03:30;;;;;;;4.15;2.97;;;24.50;99.90;;;;;;5031881;28;20496;-55
2023/08/17 11:05:57;;;;;;;3.88;2.95;;;24.60;99.90;;;;;;5031433;28;20052;-56
2023/08/17 11:08:28;;;;;;;4.28;3.38;;;24.60;99.90;;;;;;5031306;28;20060;-57
2023/08/17 11:11:11;;;;;;;4.43;3.10;;;24.70;99.90;;;;;;5013353;28;20049;-56
2023/08/17 11:13:39;;;;;;;4.80;2.72;;;24.60;99.90;;;;;;5031273;28;20048;-55
2023/08/17 11:16:05;;;;;;;4.43;3.35;;;24.60;99.90;;;;;;5013499;28;20033;-57
2023/08/17 11:18:32;;;;;;;4.32;2.78;;;24.50;99.90;;;;;;5031074;28;20113;-57
2023/08/17 11:20:58;;;;;;;2.85;2.42;;;24.30;99.90;;;;;;5030957;28;20017;-55
2023/08/17 11:23:24;;;;;;;2.92;2.72;;;24.20;99.90;;;;;;5031317;28;20028;-57
2023/08/17 11:25:52;;;;;;;3.28;3.03;;;24.20;99.90;;;;;;5013338;28;20025;-58
2023/08/17 11:28:18;;;;;;;4.15;2.97;;;24.20;99.90;;;;;;5031052;28;20140;-57
2023/08/17 11:30:44;;;;;;;3.60;3.30;;;24.20;99.90;;;;;;5030754;28;20061;-55
2023/08/17 11:33:10;;;;;;;6.00;3.22;;;24.20;99.90;;;;;;5030866;28;20395;-57
2023/08/17 11:35:36;;;;;;;7.78;3.65;;;24.30;99.90;;;;;;5031433;28;20040;-55
2023/08/17 11:38:03;;;;;;;10.07;7.50;;;24.30;99.90;;;;;;5034618;28;20021;-54
2023/08/17 11:40:30;;;;;;;16.83;10.88;;;24.40;99.90;;;;;;5034123;28;20092;-54
2023/08/17 11:42:55;;;;;;;8.07;5.70;;;24.40;99.90;;;;;;5034733;28;20489;-55
2023/08/17 11:45:21;;;;;;;4.38;3.58;;;24.40;99.90;;;;;;5034628;28;20034;-57
2023/08/17 11:47:47;;;;;;;14.13;4.30;;;24.40;99.90;;;;;;5034303;28;20025;-56
2023/08/17 11:50:14;;;;;;;6.95;3.60;;;24.40;99.90;;;;;;5034808;28;20052;-54
2023/08/17 11:52:39;;;;;;;3.30;3.05;;;24.30;99.90;;;;;;5034551;28;20096;-55
2023/08/17 11:55:06;;;;;;;11.32;3.40;;;24.30;99.90;;;;;;5034335;28;20604;-56
2023/08/17 11:57:35;;;;;;;4.65;3.22;;;24.20;99.90;;;;;;5034449;28;20022;-57
2023/08/17 12:00:01;;;;;;;4.93;2.90;;;24.20;99.90;;;;;;5034161;28;20068;-57
2023/08/17 12:02:27;;;;;;;3.90;3.58;;;24.20;99.90;;;;;;5033603;28;20048;-50
2023/08/17 12:04:55;;;;;;;6.25;5.55;;;24.30;99.90;;;;;;5034353;28;20025;-54
2023/08/17 12:07:23;;;;;;;8.25;3.80;;;24.40;99.90;;;;;;5033585;28;20148;-57
2023/08/17 12:09:49;;;;;;;4.80;3.28;;;24.50;99.90;;;;;;5031741;28;20052;-56
2023/08/17 12:12:24;;;;;;;17.48;10.30;;;24.70;99.90;;;;;;5032487;28;20101;-56
2023/08/17 12:14:49;;;;;;;4.68;4.28;;;24.60;99.90;;;;;;5032486;28;20290;-55
2023/08/17 12:17:16;;;;;;;3.65;2.53;;;24.80;99.90;;;;;;5032874;28;20496;-57
2023/08/17 12:19:42;;;;;;;3.38;2.88;;;24.90;99.90;;;;;;5033721;28;20032;-57
2023/08/17 12:22:08;;;;;;;5.38;2.47;;;25.10;99.90;;;;;;5033899;28;20105;-57
2023/08/17 12:24:35;;;;;;;4.05;3.40;;;25.20;99.90;;;;;;5034028;28;20495;-57
2023/08/17 12:27:02;;;;;;;3.70;3.38;;;25.30;99.90;;;;;;5034006;28;20099;-56
2023/08/17 12:29:28;;;;;;;2.92;2.72;;;25.40;99.90;;;;;;5033684;28;20116;-55
2023/08/17 12:31:56;;;;;;;3.03;2.65;;;25.60;99.90;;;;;;5016266;28;20471;-57
2023/08/17 12:34:21;;;;;;;2.40;2.20;;;25.60;99.90;;;;;;5033862;28;20030;-58
2023/08/17 12:36:48;;;;;;;3.35;3.05;;;25.70;99.90;;;;;;5033766;28;20044;-55
2023/08/17 12:39:14;;;;;;;4.07;2.90;;;25.80;99.90;;;;;;5033430;28;20041;-58